METAR Data
IDs: Format: Raw Decoded Include TAF

Data at: 2146 UTC 01 Dec 2021

KOWP 012135Z AUTO 32003KT 10SM CLR 23/02 A3004 RMK AO2 T02260022 PWINO